Alfarata, Pennsylvania
Current Conditions -  °F | °C
As of 3:53 PM on Thursday 23 Oct 2014 (Local Time) from KUNV Reporting Station
Overcast Overcast  
Wind Chill: 59°   Ceiling: 4700
Heat Index: 59°   Visibility: 10mi
Dew Point: 43°   Wind: 14mph
Humidity: 55%   Direction: 360°N
Pressure: 29.92"   Gusts: 26mph
Location:  40.7125°N, 77.3707°W
Report Text: KUNV 231953Z 36012G23KT 10SM OVC047 15/06 A2992
Loading
Personal Weather Stations






























Interactive Weather Map New forecast layout! Learn more

10-Day Weather Forecast

Advertisements
Track Severe Weather on mobile